ADDS METAR Data INFO
IDs: Format: Raw Decoded Include TAF

Data at: 0857 UTC 16 Jul 2018

METAR for:PANC (Anchorage Intl, AK, US)
Text:PANC 160853Z 15004KT 10SM FEW050 SCT080 SCT230 11/09 A2982 RMK AO2 SLP099 T01060089 401890100 51007
Temperature: 10.6°C ( 51°F)
Dewpoint: 8.9°C ( 48°F) [RH = 89%]
Pressure (altimeter):29.82 inches Hg (1009.9 mb) [Sea level pressure: 1009.9 mb]
Winds:from the SSE (150 degrees) at 5 MPH (4 knots; 2.1 m/s)
Visibility:10 or more sm (16+ km)
Ceiling:at least 12,000 feet AGL
Clouds: few clouds at 5000 feet AGL, scattered clouds at 8000 feet AGL, scattered clouds at 23000 feet AGL
Text:PANC 160753Z 10003KT 10SM FEW048 FEW075 SCT250 11/09 A2982 RMK AO2 SLP098 T01110089
Temperature: 11.1°C ( 52°F)
Dewpoint: 8.9°C ( 48°F) [RH = 86%]
Pressure (altimeter):29.82 inches Hg (1009.9 mb) [Sea level pressure: 1009.8 mb]
Winds:from the E (100 degrees) at 3 MPH (3 knots; 1.5 m/s)
Visibility:10 or more sm (16+ km)
Ceiling:at least 12,000 feet AGL
Clouds: few clouds at 4800 feet AGL, few clouds at 7500 feet AGL, scattered clouds at 25000 feet AGL
Text:PANC 160653Z 15003KT 10SM FEW048 FEW070 SCT250 12/09 A2981 RMK AO2 SLP095 T01220094
Temperature: 12.2°C ( 54°F)
Dewpoint: 9.4°C ( 49°F) [RH = 83%]
Pressure (altimeter):29.81 inches Hg (1009.6 mb) [Sea level pressure: 1009.5 mb]
Winds:from the SSE (150 degrees) at 3 MPH (3 knots; 1.5 m/s)
Visibility:10 or more sm (16+ km)
Ceiling:at least 12,000 feet AGL
Clouds: few clouds at 4800 feet AGL, few clouds at 7000 feet AGL, scattered clouds at 25000 feet AGL
Text:PANC 160553Z 00000KT 10SM FEW048 FEW070 SCT250 14/09 A2980 RMK AO2 SLP092 CB DSNT N DSIPTD T01440089 10189 20144 53007
Temperature: 14.4°C ( 58°F)
Dewpoint: 8.9°C ( 48°F) [RH = 70%]
Pressure (altimeter):29.80 inches Hg (1009.2 mb) [Sea level pressure: 1009.2 mb]
Winds:calm
Visibility:10 or more sm (16+ km)
Ceiling:at least 12,000 feet AGL
Clouds: few clouds at 4800 feet AGL, few clouds at 7000 feet AGL, scattered clouds at 25000 feet AGL
Text:PANC 160453Z 26007KT 10SM FEW048 FEW070 SCT250 16/08 A2979 RMK AO2 SLP088 CB DSNT N MOV S CB DSNT SW MOVD SW T01560078
Temperature: 15.6°C ( 60°F)
Dewpoint: 7.8°C ( 46°F) [RH = 60%]
Pressure (altimeter):29.79 inches Hg (1008.9 mb) [Sea level pressure: 1008.8 mb]
Winds:from the W (260 degrees) at 8 MPH (7 knots; 3.6 m/s)
Visibility:10 or more sm (16+ km)
Ceiling:at least 12,000 feet AGL
Clouds: few clouds at 4800 feet AGL, few clouds at 7000 feet AGL, scattered clouds at 25000 feet AGL
Text:PANC 160353Z 29009KT 10SM FEW048 FEW070 SCT250 16/10 A2979 RMK AO2 SLP088 CB DSNT W MOV S T01610100
Temperature: 16.1°C ( 61°F)
Dewpoint: 10.0°C ( 50°F) [RH = 67%]
Pressure (altimeter):29.79 inches Hg (1008.9 mb) [Sea level pressure: 1008.8 mb]
Winds:from the WNW (290 degrees) at 10 MPH (9 knots; 4.6 m/s)
Visibility:10 or more sm (16+ km)
Ceiling:at least 12,000 feet AGL
Clouds: few clouds at 4800 feet AGL, few clouds at 7000 feet AGL, scattered clouds at 25000 feet AGL

TAF for:PANC (Anchorage Intl, AK, US) issued at 0523 UTC 16 Jul 2018
Text:PANC 160523Z 1606/1712 17007KT P6SM SCT050 BKN070
Forecast period:0600 UTC 16 July 2018 to 0000 UTC 17 July 2018
Forecast type:FROM: standard forecast or significant change
Winds:from the S (170 degrees) at 8 MPH (7 knots; 3.6 m/s)
Visibility:6 or more sm (10+ km)
Ceiling:7000 feet AGL
Clouds: scattered clouds at 5000 feet AGL, broken clouds at 7000 feet AGL
Text:FM170000 17012G19KT P6SM VCSH SCT040 OVC060
Forecast period:0000 to 1200 UTC 17 July 2018
Forecast type:FROM: standard forecast or significant change
Winds:from the S (170 degrees) at 14 MPH (12 knots; 6.2 m/s) gusting to 22 MPH (19 knots; 9.8 m/s)
Visibility:6 or more sm (10+ km)
Ceiling:6000 feet AGL
Clouds: scattered clouds at 4000 feet AGL, overcast cloud deck at 6000 feet AGL
Weather:VCSH (showers in vicinity)